world map with LTAC marked

LTAC - Airport

This information may not be accurate or current and is not valid for navigation or flight planning. No warranty of fitness for any purpose is made or implied.

flag of Turkey

Donate via PayPal

Additional information is available on the NEW Great Circle Mapper

Location
City:  Ankara, Turkey
Name:Esenboga International Airport
ICAO / IATA:LTAC / ESB

Details
Type:Airport (Aerodrome, Airfield)
Use:Public/Civil
Latitude:40°07'41"N (40.128056)
Longitude:32°59'42"E (32.995000)
Elevation:3125 ft (953 m)
Runways:2
Longest:12303 × 197 ft (3750 × 60 m)

Time
Timezone:UTC+3 (DST+5)
Local Time:

Weather
METAR:LTAC  191450Z VRB02KT 9999 SCT040 BKN100 13/04 Q1018 NOSIG RMK RWY21L 19003KT 130V220 RWY03L VRB01KT RWY21R 22003KT
TAF:LTAC  (expired)

Related Locations
Nearby:
Farthest:RVV: 11310 mi / 18202 km
Raivavae, Tubuai Islands, Austral Islands, PF

Find:

   beyond  
but within

Other Information
Maps:
Links:
Sources:

  


 


Great Circle Mapper   Great Circle Mapper
Great Circle Mapper FAQ   Great Circle Mapper FAQ
  Karl's Home Page
KLSē   KLSē Home
   GC on Facebook
Airlines of the World   Airlines of the World
Donate via PayPal


Copyright © 2004-2018, Karl L. Swartz. All rights reserved.
All trademarks mentioned herein belong to their respective owners.

Please see credits for attribution and copyright information.

Karl Swartz <karl@kls2.com>
  Powered by FreeBSD
Valid HTML 4.01!
Labeled with ICRA
hCard Microformat
Geo Microformat